Time;durP1;ratioP1;P1;durP2;ratioP2;P2;SDS_P1;SDS_P2;PMS_P1;PMS_P2;Temp;Humidity;BMP_temperature;BMP_pressure;BME280_temperature;BME280_humidity;BME280_pressure;Samples;Min_cycle;Max_cycle;Signal;HPM_P1;HPM_P2
2024/03/04 00:57:56;;;;;;;4.78;2.65;;;6.90;37.00;;;;;;4897795;29;20239;-86
2024/03/04 01:00:23;;;;;;;5.18;3.03;;;6.80;42.10;;;;;;4899297;29;20215;-86
2024/03/04 01:02:51;;;;;;;3.03;2.35;;;6.90;43.50;;;;;;4899031;29;20293;-86
2024/03/04 01:05:18;;;;;;;3.35;2.08;;;6.90;43.20;;;;;;4887013;29;20214;-86
2024/03/04 01:08:24;;;;;;;5.10;2.00;;;6.80;37.70;;;;;;4880497;29;20231;-86
2024/03/04 01:10:54;;;;;;;5.95;3.00;;;6.60;38.00;;;;;;4900521;29;20203;-86
2024/03/04 01:13:22;;;;;;;4.07;2.58;;;6.60;45.60;;;;;;4898479;29;20196;-87
2024/03/04 01:15:49;;;;;;;4.05;2.22;;;6.60;45.60;;;;;;4875452;29;20576;-86
2024/03/04 01:18:17;;;;;;;2.97;1.98;;;6.50;45.50;;;;;;4895355;29;20237;-87
2024/03/04 01:20:45;;;;;;;5.25;2.53;;;6.40;45.40;;;;;;4898609;29;20532;-87
2024/03/04 01:23:12;;;;;;;3.15;2.22;;;6.20;45.30;;;;;;4884229;29;20289;-87
2024/03/04 01:25:39;;;;;;;3.22;2.30;;;6.10;45.20;;;;;;4898127;29;20290;-87
2024/03/04 01:28:06;;;;;;;4.03;2.60;;;6.10;46.00;;;;;;4898607;29;20207;-88
2024/03/04 01:30:36;;;;;;;3.60;2.42;;;6.30;49.70;;;;;;4899151;29;20211;-87
2024/03/04 01:33:06;;;;;;;5.65;2.22;;;6.40;48.30;;;;;;4889827;29;20195;-87
2024/03/04 01:35:33;;;;;;;3.88;2.20;;;6.60;51.00;;;;;;4897389;29;20200;-88
2024/03/04 01:38:01;;;;;;;6.85;2.30;;;6.50;50.80;;;;;;4887149;29;20230;-87
2024/03/04 01:40:28;;;;;;;3.38;2.30;;;6.50;49.50;;;;;;4894769;29;20204;-87
2024/03/04 01:42:55;;;;;;;2.60;2.08;;;6.40;45.40;;;;;;4897139;29;20269;-87
2024/03/04 01:45:24;;;;;;;3.33;2.00;;;6.30;45.30;;;;;;4892890;29;20222;-87
2024/03/04 01:47:53;;;;;;;3.85;1.95;;;6.40;45.40;;;;;;4896463;29;20207;-87
2024/03/04 01:50:22;;;;;;;4.53;2.40;;;6.30;44.70;;;;;;4892144;29;20622;-87
2024/03/04 01:52:50;;;;;;;3.75;2.50;;;6.30;50.30;;;;;;4897381;29;20685;-86
2024/03/04 01:55:19;;;;;;;4.22;1.88;;;6.40;49.30;;;;;;4895470;29;20199;-87
2024/03/04 01:57:47;;;;;;;5.15;2.10;;;6.40;45.40;;;;;;4889740;29;20282;-86
2024/03/04 02:00:16;;;;;;;3.90;2.45;;;6.20;45.30;;;;;;4894658;29;20214;-86
2024/03/04 02:02:43;;;;;;;3.85;2.45;;;6.20;48.40;;;;;;4897803;29;20208;-87
2024/03/04 02:05:14;;;;;;;4.95;2.25;;;6.20;50.50;;;;;;4885856;29;20286;-87
2024/03/04 02:07:41;;;;;;;3.35;1.92;;;6.30;52.00;;;;;;4887720;29;20191;-86
2024/03/04 02:10:10;;;;;;;4.43;1.85;;;6.20;49.90;;;;;;4907195;29;20199;-87
2024/03/04 02:12:38;;;;;;;6.55;2.08;;;6.00;51.80;;;;;;4897413;29;20241;-86
2024/03/04 02:15:06;;;;;;;3.88;2.13;;;5.80;49.80;;;;;;4887278;29;20196;-87
2024/03/04 02:17:34;;;;;;;3.60;2.10;;;5.70;50.90;;;;;;4896392;29;20659;-89
2024/03/04 02:20:04;;;;;;;3.13;2.00;;;5.70;54.00;;;;;;4898148;29;20230;-87
2024/03/04 02:22:33;;;;;;;6.28;1.90;;;5.90;58.00;;;;;;4884288;29;20206;-86
2024/03/04 02:24:59;;;;;;;4.22;2.10;;;6.00;50.50;;;;;;4890095;29;20207;-87
2024/03/04 02:27:26;;;;;;;5.50;1.90;;;5.80;51.70;;;;;;4902160;29;20196;-86
2024/03/04 02:29:55;;;;;;;3.83;2.03;;;5.70;51.10;;;;;;4901907;29;20211;-86
2024/03/04 02:32:35;;;;;;;3.50;1.70;;;5.60;50.50;;;;;;4898002;29;20658;-87
2024/03/04 02:35:04;;;;;;;3.73;2.07;;;5.60;50.40;;;;;;4895652;29;20211;-88
2024/03/04 02:37:33;;;;;;;2.65;1.90;;;5.70;51.80;;;;;;4901334;29;20208;-86
2024/03/04 02:40:01;;;;;;;2.90;1.85;;;5.90;55.40;;;;;;4892572;29;20224;-86
2024/03/04 02:42:27;;;;;;;2.65;1.88;;;5.90;49.20;;;;;;4913165;29;20297;-87
2024/03/04 02:44:55;;;;;;;4.33;2.10;;;5.80;44.90;;;;;;4901534;29;20209;-86
2024/03/04 02:47:21;;;;;;;3.70;2.30;;;5.90;55.50;;;;;;4901289;29;20236;-87
2024/03/04 02:49:48;;;;;;;3.13;2.00;;;6.00;56.50;;;;;;4901588;29;20210;-87
2024/03/04 02:52:15;;;;;;;3.43;2.00;;;5.90;53.60;;;;;;4897774;29;20671;-87
2024/03/04 02:54:43;;;;;;;2.80;1.98;;;5.90;51.30;;;;;;4893152;29;20211;-86
2024/03/04 03:43:48;;;;;;;2.83;1.80;;;5.40;66.00;;;;;;5005650;23;20238;-87
2024/03/04 03:46:35;;;;;;;3.97;2.00;;;5.30;65.60;;;;;;4899144;29;20200;-87
2024/03/04 03:49:02;;;;;;;4.90;2.17;;;4.90;64.20;;;;;;4898997;29;20203;-87
2024/03/04 03:51:28;;;;;;;2.70;2.10;;;4.70;66.40;;;;;;4900041;29;20562;-87
2024/03/04 03:53:55;;;;;;;4.23;2.03;;;4.80;69.50;;;;;;4899587;29;20667;-87
2024/03/04 03:56:22;;;;;;;3.33;2.30;;;5.00;74.30;;;;;;4881793;29;20220;-87
2024/03/04 03:58:52;;;;;;;3.03;2.50;;;5.20;73.30;;;;;;4900267;29;20254;-87
2024/03/04 04:01:18;;;;;;;4.13;2.50;;;5.40;70.10;;;;;;4893295;29;20200;-87
2024/03/04 04:03:45;;;;;;;3.80;2.20;;;5.60;70.40;;;;;;4891922;29;20204;-87
2024/03/04 04:06:12;;;;;;;3.27;1.97;;;5.60;70.40;;;;;;4891584;29;20219;-87
2024/03/04 04:08:41;;;;;;;3.13;2.00;;;5.50;70.30;;;;;;4899299;29;20206;-87
2024/03/04 04:11:07;;;;;;;3.17;2.23;;;5.50;70.30;;;;;;4889699;29;20216;-87
2024/03/04 04:13:34;;;;;;;3.10;2.30;;;5.30;75.50;;;;;;4899377;29;20687;-87
2024/03/04 04:16:02;;;;;;;3.97;2.10;;;5.20;70.00;;;;;;4905624;29;20195;-86
2024/03/04 04:18:29;;;;;;;5.27;2.13;;;5.20;71.30;;;;;;4910815;29;20206;-87
2024/03/04 04:20:56;;;;;;;3.40;2.30;;;5.10;69.80;;;;;;4896777;29;20211;-87
2024/03/04 04:23:23;;;;;;;3.20;2.10;;;5.10;70.30;;;;;;4894113;29;20192;-87
2024/03/04 04:25:51;;;;;;;3.63;2.00;;;5.10;72.00;;;;;;4888900;29;20215;-87
2024/03/04 04:28:17;;;;;;;3.20;2.03;;;5.00;69.80;;;;;;4898155;29;20215;-86
2024/03/04 04:30:43;;;;;;;4.40;2.30;;;5.10;69.80;;;;;;4908806;29;20226;-86
2024/03/04 04:33:11;;;;;;;4.23;2.13;;;5.00;69.70;;;;;;4899216;29;20670;-87
2024/03/04 04:35:39;;;;;;;4.60;2.30;;;5.10;69.80;;;;;;4899008;29;20215;-87
2024/03/04 04:38:05;;;;;;;4.37;2.27;;;5.40;70.10;;;;;;4899539;29;20235;-86
2024/03/04 04:40:33;;;;;;;3.60;2.50;;;5.70;64.50;;;;;;4900034;29;20241;-87
2024/03/04 04:42:59;;;;;;;5.63;2.70;;;5.90;68.10;;;;;;4899679;29;20215;-87
2024/03/04 04:45:26;;;;;;;4.93;2.30;;;6.10;60.20;;;;;;4898540;29;20697;-87
2024/03/04 04:47:53;;;;;;;3.90;2.27;;;6.10;55.60;;;;;;4880366;29;20192;-87
2024/03/04 04:50:22;;;;;;;2.92;2.20;;;6.00;56.40;;;;;;4888799;29;20207;-87
2024/03/04 04:52:49;;;;;;;4.88;2.03;;;6.00;60.00;;;;;;4899225;29;20195;-86
2024/03/04 04:55:14;;;;;;;2.92;1.90;;;6.20;59.40;;;;;;4899177;29;20218;-87
2024/03/04 04:57:41;;;;;;;4.93;2.50;;;6.30;57.10;;;;;;4894440;29;20227;-87
2024/03/04 05:00:12;;;;;;;3.43;2.80;;;6.30;55.60;;;;;;4898904;29;20237;-87
2024/03/04 05:02:39;;;;;;;6.68;3.25;;;6.40;57.90;;;;;;4901699;29;20211;-87
2024/03/04 05:05:06;;;;;;;4.60;3.10;;;6.40;58.70;;;;;;4897681;29;20207;-87
2024/03/04 05:07:34;;;;;;;4.28;3.15;;;6.50;60.40;;;;;;4898352;29;20199;-87
2024/03/04 05:10:01;;;;;;;5.90;3.55;;;6.50;61.50;;;;;;4898372;29;20568;-87
2024/03/04 05:12:29;;;;;;;6.83;3.50;;;6.60;62.00;;;;;;4898333;29;20208;-87
2024/03/04 05:14:55;;;;;;;6.57;4.07;;;6.50;63.30;;;;;;4898301;29;20208;-87
2024/03/04 05:17:22;;;;;;;7.30;4.10;;;6.40;66.90;;;;;;4898442;29;20568;-87
2024/03/04 05:19:49;;;;;;;6.23;4.20;;;6.40;71.20;;;;;;4897908;29;20713;-87
2024/03/04 05:22:16;;;;;;;6.65;4.15;;;6.50;71.30;;;;;;4897588;29;20214;-87
2024/03/04 05:24:45;;;;;;;9.05;4.53;;;6.50;74.90;;;;;;4897853;29;20198;-87
2024/03/04 05:27:12;;;;;;;6.97;4.27;;;6.50;75.00;;;;;;4896426;29;20634;-88
2024/03/04 05:29:39;;;;;;;8.52;5.20;;;6.60;77.90;;;;;;4894612;29;20234;-87
2024/03/04 05:32:07;;;;;;;10.70;5.20;;;6.60;77.90;;;;;;4889443;29;20206;-87
2024/03/04 05:34:33;;;;;;;11.18;6.22;;;6.60;77.90;;;;;;4898548;29;20551;-87
2024/03/04 05:37:00;;;;;;;9.50;6.30;;;6.50;81.30;;;;;;4899062;29;20650;-87
2024/03/04 05:39:31;;;;;;;9.10;7.35;;;6.40;86.70;;;;;;4897749;29;20580;-84
2024/03/04 05:41:59;;;;;;;11.68;7.63;;;6.30;89.80;;;;;;4898652;29;20254;-86
2024/03/04 05:47:54;;;;;;;12.60;8.77;;;6.30;91.80;;;;;;4917459;29;20601;-86
2024/03/04 05:53:31;;;;;;;16.38;9.57;;;6.40;93.50;;;;;;4894978;29;20203;-86
2024/03/04 06:06:24;;;;;;;14.13;10.27;;;6.70;94.70;;;;;;5357711;23;20233;-86
2024/03/04 06:08:50;;;;;;;13.27;10.47;;;6.80;94.50;;;;;;4902893;29;20305;-86
2024/03/04 06:11:17;;;;;;;16.65;11.35;;;6.80;94.60;;;;;;4901692;29;20209;-86
2024/03/04 06:13:44;;;;;;;17.17;11.50;;;6.80;94.80;;;;;;4901953;29;20187;-85
2024/03/04 06:16:11;;;;;;;15.57;10.63;;;6.80;95.20;;;;;;4902003;29;20218;-90
2024/03/04 06:18:38;;;;;;;16.77;12.20;;;6.90;94.90;;;;;;4901630;29;20214;-86
2024/03/04 06:21:06;;;;;;;16.03;11.77;;;6.90;95.00;;;;;;4901237;29;20227;-87
2024/03/04 06:23:35;;;;;;;17.55;12.75;;;6.90;95.50;;;;;;4900955;29;20203;-88
2024/03/04 06:26:03;;;;;;;16.27;11.85;;;7.00;95.50;;;;;;4900756;29;20211;-88
2024/03/04 06:28:30;;;;;;;16.20;12.32;;;7.10;95.30;;;;;;4901399;29;20682;-87
2024/03/04 06:30:59;;;;;;;17.27;12.25;;;7.00;95.50;;;;;;4902579;29;20609;-87
2024/03/04 06:33:26;;;;;;;19.98;12.88;;;7.10;95.50;;;;;;4901829;29;20203;-87
2024/03/04 06:35:53;;;;;;;18.65;12.63;;;7.10;95.50;;;;;;4901595;29;20202;-87
2024/03/04 06:38:19;;;;;;;19.05;12.98;;;7.20;95.50;;;;;;4902142;29;20192;-87
2024/03/04 06:40:48;;;;;;;21.98;12.98;;;7.30;95.00;;;;;;4901839;29;20223;-87
2024/03/04 06:43:15;;;;;;;17.90;12.57;;;7.30;95.10;;;;;;4910080;29;20274;-87
2024/03/04 06:45:58;;;;;;;18.73;13.77;;;7.40;95.10;;;;;;4921758;29;20191;-86
2024/03/04 07:18:52;;;;;;;24.05;16.17;;;7.80;95.30;;;;;;4910389;29;20203;-89
2024/03/04 07:21:20;;;;;;;22.52;15.95;;;7.80;95.70;;;;;;4933134;29;20233;-89
2024/03/04 07:23:47;;;;;;;21.92;15.15;;;8.00;95.10;;;;;;4903570;29;20206;-92
2024/03/04 07:26:13;;;;;;;26.35;16.52;;;8.10;95.00;;;;;;4910508;29;20207;-87
2024/03/04 07:28:41;;;;;;;22.88;15.90;;;8.30;94.00;;;;;;4901364;29;20287;-84
2024/03/04 07:38:29;;;;;;;22.40;16.02;;;8.40;94.50;;;;;;4920194;29;20535;-84
2024/03/04 07:40:56;;;;;;;24.92;16.13;;;8.60;94.20;;;;;;4919366;29;20222;-84
2024/03/04 07:43:23;;;;;;;21.77;15.70;;;8.50;94.10;;;;;;4919953;29;20195;-84
2024/03/04 12:32:00;;;;;;;18.25;12.55;;;10.70;78.70;;;;;;5259913;23;20309;-86
2024/03/04 12:48:26;;;;;;;17.73;11.77;;;10.50;77.70;;;;;;4919457;29;20697;-85
2024/03/04 12:57:42;;;;;;;18.38;12.43;;;10.60;73.70;;;;;;5738176;23;20187;-93
2024/03/04 13:00:12;;;;;;;173.52;123.93;;;10.60;74.60;;;;;;4917006;29;20331;-85
2024/03/04 13:03:26;;;;;;;21.92;16.13;;;10.60;77.60;;;;;;4917678;29;20201;-85
2024/03/04 13:27:02;;;;;;;20.63;13.18;;;10.60;75.90;;;;;;4926045;29;20191;-84
2024/03/04 13:36:39;;;;;;;18.35;12.55;;;10.60;75.50;;;;;;4917535;29;20187;-87
2024/03/04 13:49:42;;;;;;;22.15;13.15;;;10.70;77.60;;;;;;4917963;29;20622;-87
2024/03/04 14:22:38;;;;;;;18.05;13.23;;;10.40;77.10;;;;;;4902082;29;20247;-86
2024/03/04 14:25:45;;;;;;;17.63;12.73;;;10.50;76.30;;;;;;4867695;29;20212;-85
2024/03/04 14:28:13;;;;;;;20.85;13.23;;;10.60;74.90;;;;;;4866348;29;20204;-83
2024/03/04 14:30:40;;;;;;;18.40;11.63;;;10.70;73.90;;;;;;4883544;29;20215;-84
2024/03/04 14:40:21;;;;;;;18.42;12.70;;;10.90;74.00;;;;;;4883369;29;20314;-84
2024/03/04 14:46:11;;;;;;;18.25;12.73;;;10.80;74.00;;;;;;4881836;29;20186;-83
2024/03/04 14:48:37;;;;;;;20.08;12.20;;;10.70;73.80;;;;;;4882398;29;20291;-83
2024/03/04 14:51:05;;;;;;;20.25;12.48;;;10.70;73.80;;;;;;4888717;29;20231;-85
2024/03/04 14:53:31;;;;;;;16.63;12.13;;;10.80;74.00;;;;;;4881721;29;20212;-83
2024/03/04 14:55:59;;;;;;;20.65;12.88;;;10.70;73.80;;;;;;4863628;29;20196;-83
2024/03/04 14:58:26;;;;;;;23.23;13.25;;;10.70;73.80;;;;;;4863791;29;20212;-83
2024/03/04 15:00:54;;;;;;;19.05;13.23;;;10.70;73.80;;;;;;4864272;29;20630;-83
2024/03/04 15:03:30;;;;;;;18.00;11.73;;;10.60;73.70;;;;;;4880512;29;20237;-85
2024/03/04 15:05:59;;;;;;;20.75;13.18;;;10.60;73.70;;;;;;4882462;29;20213;-84
2024/03/04 15:08:26;;;;;;;20.35;13.60;;;10.60;73.80;;;;;;4878478;29;20671;-86
2024/03/04 15:10:54;;;;;;;20.35;12.90;;;10.50;74.50;;;;;;4857715;29;20214;-84
2024/03/04 15:13:30;;;;;;;18.90;12.45;;;10.50;76.60;;;;;;4882444;29;20200;-82
2024/03/04 15:15:57;;;;;;;18.17;12.32;;;10.50;75.70;;;;;;4877293;29;20861;-83
2024/03/04 15:18:23;;;;;;;16.63;11.40;;;10.50;73.80;;;;;;4871410;29;20212;-83
2024/03/04 15:20:53;;;;;;;17.73;11.43;;;10.50;73.60;;;;;;4877234;29;20219;-84
2024/03/04 15:50:56;;;;;;;16.52;10.98;;;10.20;75.90;;;;;;4886089;29;20617;-83
2024/03/04 17:51:57;;;;;;;18.95;11.65;;;9.30;85.20;;;;;;4875716;29;20315;-86
2024/03/04 17:54:43;;;;;;;15.63;11.02;;;9.30;85.60;;;;;;4881528;29;20207;-85
2024/03/04 18:05:48;;;;;;;21.63;12.95;;;9.20;86.80;;;;;;4911399;29;20206;-85
2024/03/04 18:15:19;;;;;;;20.45;12.68;;;9.20;87.50;;;;;;4902714;29;20235;-86
2024/03/04 18:18:25;;;;;;;21.73;13.63;;;9.20;87.10;;;;;;4901930;29;20200;-85
2024/03/04 18:20:52;;;;;;;20.05;13.05;;;9.20;87.10;;;;;;4892329;29;20622;-90
2024/03/04 18:23:19;;;;;;;23.10;13.23;;;9.20;87.50;;;;;;4889851;29;20207;-82
2024/03/04 18:25:48;;;;;;;19.52;13.20;;;9.10;88.50;;;;;;4901249;29;20278;-84
2024/03/04 18:28:15;;;;;;;19.27;12.73;;;9.10;88.90;;;;;;4902588;29;20195;-83
2024/03/04 18:30:46;;;;;;;21.02;13.40;;;9.10;89.40;;;;;;4901845;29;20243;-85
2024/03/04 18:40:16;;;;;;;22.77;14.20;;;9.10;90.10;;;;;;4920823;29;20183;-83
2024/03/04 18:46:30;;;;;;;24.08;15.00;;;8.90;90.40;;;;;;4920361;29;20540;-84
2024/03/04 18:52:32;;;;;;;23.73;15.57;;;8.90;91.00;;;;;;4915926;29;20208;-83
2024/03/04 19:32:50;;;;;;;26.98;17.20;;;8.90;91.90;;;;;;5141783;23;20234;-83
2024/03/04 19:42:08;;;;;;;33.33;18.23;;;8.90;91.90;;;;;;4919217;29;20242;-83
2024/03/04 19:47:59;;;;;;;28.65;18.17;;;8.90;91.90;;;;;;4913162;29;20187;-83
2024/03/04 19:50:27;;;;;;;27.67;17.70;;;8.90;92.10;;;;;;4918670;29;20199;-83
2024/03/04 19:52:54;;;;;;;30.35;19.02;;;8.80;92.10;;;;;;4900511;29;20283;-83
2024/03/04 19:55:21;;;;;;;28.30;17.38;;;8.80;92.30;;;;;;4900894;29;20191;-83
2024/03/04 20:09:36;;;;;;;35.17;19.83;;;8.40;93.30;;;;;;4900150;29;20631;-83
2024/03/04 20:15:26;;;;;;;30.52;19.55;;;8.20;94.20;;;;;;4900521;29;20206;-83
2024/03/04 20:21:18;;;;;;;33.58;19.80;;;8.20;94.70;;;;;;4899976;29;20218;-83
2024/03/04 20:24:37;;;;;;;34.67;20.10;;;8.20;94.50;;;;;;4900824;29;20217;-83
2024/03/04 20:49:27;;;;;;;36.72;19.88;;;7.90;95.50;;;;;;4919448;29;20269;-82
2024/03/04 20:51:55;;;;;;;35.70;19.83;;;7.90;95.70;;;;;;4881410;29;20247;-82
2024/03/04 20:54:21;;;;;;;36.38;20.20;;;7.90;95.70;;;;;;4881027;29;20275;-82
